Time;durP1;ratioP1;P1;durP2;ratioP2;P2;SDS_P1;SDS_P2;PMS_P1;PMS_P2;Temp;Humidity;BMP_temperature;BMP_pressure;BME280_temperature;BME280_humidity;BME280_pressure;Samples;Min_cycle;Max_cycle;Signal;HPM_P1;HPM_P2
2022/10/23 00:00:53;;;;;;;6.32;2.55;;;22.80;75.30;;;;;;4147555;28;20424;-57
2022/10/23 00:03:15;;;;;;;5.07;2.55;;;22.80;75.20;;;;;;4151810;28;20041;-56
2022/10/23 00:05:43;;;;;;;5.68;2.60;;;22.80;75.40;;;;;;4151505;28;20037;-57
2022/10/23 00:08:06;;;;;;;4.93;2.60;;;22.90;75.40;;;;;;4150114;28;20041;-55
2022/10/23 00:10:30;;;;;;;5.68;2.53;;;22.90;75.40;;;;;;4157769;28;20037;-56
2022/10/23 00:12:52;;;;;;;;;;;22.80;75.40;;;;;;4144918;28;20556;-56
2022/10/23 00:15:17;;;;;;;4.40;2.17;;;22.80;75.40;;;;;;4150065;28;20394;-55
2022/10/23 00:17:40;;;;;;;6.00;2.90;;;22.90;75.40;;;;;;4147575;28;20036;-58
2022/10/23 00:20:05;;;;;;;5.93;2.67;;;22.80;75.40;;;;;;4146637;28;20408;-54
2022/10/23 00:22:27;;;;;;;4.72;2.35;;;22.80;75.40;;;;;;4149175;28;20381;-58
2022/10/23 00:24:50;;;;;;;5.30;2.60;;;22.80;75.50;;;;;;4140211;28;20036;-56
2022/10/23 00:27:12;;;;;;;5.28;2.50;;;22.80;75.50;;;;;;4135591;28;20061;-57
2022/10/23 00:29:35;;;;;;;4.55;2.30;;;22.80;75.50;;;;;;4151749;28;20128;-58
2022/10/23 00:31:58;;;;;;;11.13;3.60;;;22.80;75.70;;;;;;4154535;28;20116;-56
2022/10/23 00:34:20;;;;;;;9.50;3.35;;;22.80;75.80;;;;;;4159206;28;20053;-58
2022/10/23 00:36:43;;;;;;;9.60;3.50;;;22.80;75.90;;;;;;4155342;28;20033;-58
2022/10/23 00:39:05;;;;;;;9.82;3.30;;;22.80;75.90;;;;;;4149837;28;20038;-56
2022/10/23 00:41:31;;;;;;;6.00;2.83;;;22.80;75.90;;;;;;4157946;28;20296;-55
2022/10/23 00:44:28;;;;;;;4.25;2.80;;;22.80;75.90;;;;;;4148407;28;20041;-56
2022/10/23 00:46:51;;;;;;;7.30;3.10;;;22.80;76.00;;;;;;4143564;28;20100;-55
2022/10/23 00:49:14;;;;;;;5.18;2.83;;;22.80;76.20;;;;;;4149031;28;20070;-58
2022/10/23 00:51:50;;;;;;;7.43;3.05;;;22.80;76.10;;;;;;4146753;28;20076;-58
2022/10/23 00:54:16;;;;;;;4.85;2.85;;;22.80;76.20;;;;;;4149780;28;20056;-56
2022/10/23 00:56:41;;;;;;;7.50;3.10;;;22.80;76.10;;;;;;4131951;28;20041;-56
2022/10/23 00:59:04;;;;;;;3.95;2.60;;;22.80;75.90;;;;;;4152837;28;20037;-57
2022/10/23 01:01:26;;;;;;;5.35;2.78;;;22.80;76.00;;;;;;4140582;28;20046;-56
2022/10/23 01:03:50;;;;;;;4.78;2.60;;;22.80;76.30;;;;;;4150287;28;20087;-57
2022/10/23 01:06:37;;;;;;;7.50;2.15;;;22.80;76.40;;;;;;4143817;28;20125;-57
2022/10/23 01:09:09;;;;;;;5.38;2.38;;;22.80;76.50;;;;;;4152308;28;20037;-56
2022/10/23 01:12:07;;;;;;;4.57;2.22;;;22.90;76.60;;;;;;4144614;28;21061;-57
2022/10/23 01:15:08;;;;;;;4.47;1.85;;;22.90;76.50;;;;;;4088956;28;20043;-57
2022/10/23 01:17:41;;;;;;;3.13;1.60;;;22.90;76.50;;;;;;4068346;29;20099;-56
2022/10/23 01:20:35;;;;;;;3.97;1.70;;;22.90;76.40;;;;;;4146085;28;20045;-57
2022/10/23 01:23:16;;;;;;;5.73;2.10;;;22.90;76.00;;;;;;4154952;28;20041;-58
2022/10/23 01:25:42;;;;;;;3.92;1.63;;;22.90;76.00;;;;;;4141835;28;20045;-57
2022/10/23 01:28:10;;;;;;;2.40;1.77;;;23.00;76.00;;;;;;4152161;28;20044;-57
2022/10/23 01:30:34;;;;;;;2.25;1.42;;;23.00;76.10;;;;;;4146620;28;20090;-55
2022/10/23 01:33:01;;;;;;;2.85;1.80;;;23.00;76.00;;;;;;4150497;28;20056;-56
2022/10/23 01:35:53;;;;;;;2.58;1.50;;;23.00;75.90;;;;;;4148732;28;20080;-58
2022/10/23 01:38:38;;;;;;;1.92;1.58;;;23.00;75.90;;;;;;4141894;28;20042;-56
2022/10/23 01:41:24;;;;;;;2.88;1.70;;;23.00;76.00;;;;;;4146937;28;20049;-56
2022/10/23 01:44:11;;;;;;;3.72;1.77;;;23.00;76.00;;;;;;4149898;28;20131;-58
2022/10/23 01:46:36;;;;;;;3.75;1.38;;;23.00;75.90;;;;;;4141606;28;20038;-56
2022/10/23 01:49:01;;;;;;;2.33;1.75;;;23.00;76.20;;;;;;4144832;28;20531;-58
2022/10/23 01:51:28;;;;;;;2.30;1.48;;;23.10;75.90;;;;;;4143887;28;20057;-57
2022/10/23 01:53:54;;;;;;;2.97;1.52;;;23.10;75.90;;;;;;4142809;28;20187;-57
2022/10/23 01:56:25;;;;;;;3.17;1.60;;;23.10;75.80;;;;;;4146049;28;20034;-56
2022/10/23 01:58:51;;;;;;;3.88;1.90;;;23.10;75.90;;;;;;4150344;28;20045;-56
2022/10/23 02:01:17;;;;;;;3.05;1.45;;;23.10;75.70;;;;;;4133596;28;20069;-56
2022/10/23 02:03:42;;;;;;;2.38;1.58;;;23.10;75.60;;;;;;4133881;28;20025;-56
2022/10/23 02:06:04;;;;;;;2.95;1.83;;;23.10;75.50;;;;;;4136271;28;20412;-56
2022/10/23 02:08:27;;;;;;;2.88;1.70;;;23.10;75.30;;;;;;4133318;28;20846;-56
2022/10/23 02:11:03;;;;;;;2.88;1.45;;;23.10;75.30;;;;;;4133397;28;20183;-58
2022/10/23 02:13:54;;;;;;;3.90;1.70;;;23.20;75.30;;;;;;4127232;28;20050;-57
2022/10/23 02:16:17;;;;;;;3.25;1.50;;;23.10;75.10;;;;;;4130103;28;20417;-57
2022/10/23 02:18:44;;;;;;;2.38;1.60;;;23.20;75.00;;;;;;4135596;28;20078;-58
2022/10/23 02:21:11;;;;;;;2.50;1.40;;;23.20;74.80;;;;;;4133259;28;20038;-57
2022/10/23 02:24:06;;;;;;;2.90;1.88;;;23.20;74.60;;;;;;4119321;28;20545;-58
2022/10/23 02:27:02;;;;;;;3.28;1.52;;;23.20;74.60;;;;;;4136073;28;20034;-57
2022/10/23 02:29:37;;;;;;;3.42;1.40;;;23.20;74.50;;;;;;4136804;28;20037;-57
2022/10/23 02:32:01;;;;;;;2.88;1.70;;;23.20;74.50;;;;;;4132939;28;20049;-57
2022/10/23 02:34:24;;;;;;;3.17;1.98;;;23.20;74.60;;;;;;4129559;28;20042;-55
2022/10/23 02:36:46;;;;;;;4.43;1.90;;;23.20;74.70;;;;;;4135007;28;20068;-57
2022/10/23 02:39:09;;;;;;;3.35;1.92;;;23.20;74.70;;;;;;4122945;28;20525;-58
2022/10/23 02:41:50;;;;;;;2.85;1.90;;;23.20;74.80;;;;;;4133157;28;20041;-55
2022/10/23 02:44:45;;;;;;;5.30;1.83;;;23.20;74.70;;;;;;4129708;28;20116;-55
2022/10/23 02:47:38;;;;;;;3.28;1.67;;;23.20;74.50;;;;;;4075441;28;20122;-57
2022/10/23 02:50:28;;;;;;;3.90;2.00;;;23.20;74.50;;;;;;4134387;28;20450;-57
2022/10/23 02:53:06;;;;;;;3.03;2.20;;;23.20;74.70;;;;;;4127403;28;20104;-58
2022/10/23 02:55:40;;;;;;;4.00;2.22;;;23.10;74.90;;;;;;4133951;28;20038;-55
2022/10/23 02:58:07;;;;;;;;;;;23.10;75.00;;;;;;4133064;28;20501;-55
2022/10/23 03:00:31;;;;;;;3.17;2.15;;;23.20;75.00;;;;;;4149359;28;19922;-58
2022/10/23 03:03:01;;;;;;;2.88;2.08;;;23.20;75.10;;;;;;4150338;28;20041;-57
2022/10/23 03:05:35;;;;;;;4.13;2.20;;;23.10;75.10;;;;;;4152581;28;20815;-55
2022/10/23 03:07:58;;;;;;;3.57;2.07;;;23.10;75.10;;;;;;4146461;28;20492;-56
2022/10/23 03:10:20;;;;;;;4.10;2.30;;;23.10;75.10;;;;;;4157306;28;20045;-58
2022/10/23 03:12:43;;;;;;;3.65;1.92;;;23.10;75.00;;;;;;4149259;28;20100;-57
2022/10/23 03:15:07;;;;;;;5.38;2.60;;;23.20;74.90;;;;;;4145811;28;20041;-57
2022/10/23 03:17:29;;;;;;;;;;;23.20;74.90;;;;;;4147229;28;20041;-57
2022/10/23 03:19:51;;;;;;;7.18;2.50;;;23.20;74.80;;;;;;4141340;28;19952;-58
2022/10/23 03:22:14;;;;;;;9.75;2.13;;;23.30;74.70;;;;;;4152607;28;20478;-58
2022/10/23 03:24:36;;;;;;;6.68;2.05;;;23.30;74.60;;;;;;4156075;28;20041;-58
2022/10/23 03:26:59;;;;;;;7.82;2.22;;;23.30;74.50;;;;;;4142556;28;20190;-57
2022/10/23 03:29:22;;;;;;;5.35;1.70;;;23.30;74.30;;;;;;4151245;28;20041;-57
2022/10/23 03:31:44;;;;;;;5.10;1.60;;;23.30;74.30;;;;;;4132406;28;20501;-57
2022/10/23 03:34:10;;;;;;;3.72;1.65;;;23.30;74.20;;;;;;4139203;28;20042;-56
2022/10/23 03:36:32;;;;;;;2.72;1.52;;;23.30;74.10;;;;;;4142263;28;20049;-58
2022/10/23 03:38:55;;;;;;;3.58;1.70;;;23.30;74.10;;;;;;4144630;28;20053;-58
2022/10/23 03:41:18;;;;;;;4.03;1.67;;;23.30;74.00;;;;;;4147059;28;20040;-57
2022/10/23 03:43:41;;;;;;;5.20;2.17;;;23.30;74.00;;;;;;4147820;28;20108;-57
2022/10/23 03:46:08;;;;;;;4.80;1.80;;;23.30;74.60;;;;;;4148155;28;20349;-57
2022/10/23 03:48:31;;;;;;;4.30;2.00;;;23.30;74.00;;;;;;4146586;28;20056;-56
2022/10/23 03:50:54;;;;;;;6.18;2.15;;;23.30;74.00;;;;;;4124808;28;20030;-56
2022/10/23 03:53:16;;;;;;;6.22;2.00;;;23.30;73.90;;;;;;4146593;28;20049;-58
2022/10/23 03:55:39;;;;;;;4.32;1.75;;;23.30;73.90;;;;;;4148264;28;20452;-58
2022/10/23 03:58:02;;;;;;;4.00;1.65;;;23.30;73.90;;;;;;4145892;28;20081;-57
2022/10/23 04:00:24;;;;;;;7.90;1.67;;;23.30;73.80;;;;;;4130208;28;20061;-55
2022/10/23 04:02:47;;;;;;;4.80;1.85;;;23.30;73.70;;;;;;4145355;28;20133;-55
2022/10/23 04:05:09;;;;;;;3.33;1.77;;;23.30;73.70;;;;;;4143045;28;20049;-59
2022/10/23 04:07:32;;;;;;;5.38;1.92;;;23.30;73.70;;;;;;4147938;28;20041;-57
2022/10/23 04:09:55;;;;;;;3.90;1.83;;;23.30;73.70;;;;;;4146165;28;20505;-57
2022/10/23 04:12:17;;;;;;;3.35;1.67;;;23.30;73.60;;;;;;4148694;28;20497;-56
2022/10/23 04:14:40;;;;;;;3.72;1.90;;;23.30;73.60;;;;;;4137042;28;20050;-58
2022/10/23 04:17:04;;;;;;;5.82;1.85;;;23.20;73.50;;;;;;4147715;28;20033;-57
2022/10/23 04:19:26;;;;;;;3.42;1.88;;;23.30;73.50;;;;;;4144414;28;20100;-57
2022/10/23 04:21:50;;;;;;;4.65;2.30;;;23.30;73.40;;;;;;4145834;28;20204;-58
2022/10/23 04:24:12;;;;;;;4.47;2.03;;;23.30;73.30;;;;;;4143432;28;20037;-57
2022/10/23 04:26:35;;;;;;;4.75;1.90;;;23.20;73.30;;;;;;4142115;28;20196;-57
2022/10/23 04:28:57;;;;;;;2.78;1.77;;;23.20;73.20;;;;;;4144290;28;20049;-56
2022/10/23 04:31:20;;;;;;;4.05;2.08;;;23.20;73.20;;;;;;4143109;28;20037;-58
2022/10/23 04:33:43;;;;;;;4.18;2.20;;;23.20;73.10;;;;;;4146032;28;20086;-55
2022/10/23 04:36:06;;;;;;;4.75;2.05;;;23.20;73.20;;;;;;4152308;28;20041;-56
2022/10/23 04:38:28;;;;;;;5.18;2.05;;;23.20;73.20;;;;;;4150980;28;20088;-57
2022/10/23 04:40:51;;;;;;;3.63;1.90;;;23.20;73.00;;;;;;4149763;28;20491;-58
2022/10/23 04:43:13;;;;;;;3.50;2.00;;;23.20;73.00;;;;;;4141477;28;20053;-57
2022/10/23 04:45:36;;;;;;;4.28;2.30;;;23.20;73.00;;;;;;4131421;28;20104;-57
2022/10/23 04:47:58;;;;;;;5.90;2.50;;;23.20;72.90;;;;;;4150146;28;20033;-57
2022/10/23 04:50:21;;;;;;;4.88;2.38;;;23.20;72.90;;;;;;4149511;28;20045;-57
2022/10/23 04:52:44;;;;;;;5.70;2.75;;;23.10;72.90;;;;;;4156175;28;20053;-57
2022/10/23 04:55:07;;;;;;;5.07;2.90;;;23.10;72.80;;;;;;4156471;28;20029;-55
2022/10/23 04:57:30;;;;;;;4.40;2.67;;;23.10;72.90;;;;;;4154232;28;20131;-58
2022/10/23 04:59:52;;;;;;;7.00;2.90;;;23.10;72.90;;;;;;4154256;28;20049;-55
2022/10/23 05:02:15;;;;;;;4.88;2.65;;;23.10;72.90;;;;;;4147326;28;20456;-58
2022/10/23 05:04:38;;;;;;;4.05;2.40;;;23.10;73.00;;;;;;4149228;28;20526;-57
2022/10/23 05:07:00;;;;;;;6.10;2.85;;;23.10;72.90;;;;;;4151251;28;20045;-57
2022/10/23 05:09:23;;;;;;;7.22;2.75;;;23.00;72.80;;;;;;4143683;28;20053;-57
2022/10/23 05:11:45;;;;;;;6.60;2.72;;;23.00;72.90;;;;;;4153494;28;20551;-56
2022/10/23 05:14:08;;;;;;;5.40;2.85;;;23.00;72.80;;;;;;4153098;28;20480;-55
2022/10/23 05:16:39;;;;;;;7.28;3.22;;;23.00;72.90;;;;;;4149970;28;20156;-58
2022/10/23 05:19:02;;;;;;;6.45;2.92;;;23.00;72.90;;;;;;4143749;28;20065;-55
2022/10/23 05:21:29;;;;;;;5.38;2.65;;;23.00;72.90;;;;;;4146039;28;20041;-57
2022/10/23 05:23:52;;;;;;;5.53;2.65;;;23.00;73.00;;;;;;4146857;28;20040;-58
2022/10/23 05:26:15;;;;;;;6.07;2.70;;;23.00;72.90;;;;;;4150770;28;20155;-52
2022/10/23 05:28:37;;;;;;;6.55;3.15;;;23.00;72.90;;;;;;4144392;28;20041;-56
2022/10/23 05:31:02;;;;;;;4.50;2.50;;;23.00;72.70;;;;;;4145616;28;20040;-58
2022/10/23 05:33:26;;;;;;;4.20;2.70;;;23.00;72.70;;;;;;4149583;28;20201;-56
2022/10/23 05:35:48;;;;;;;4.70;2.80;;;22.90;72.60;;;;;;4144485;28;20034;-56
2022/10/23 05:38:12;;;;;;;4.13;2.47;;;22.90;72.60;;;;;;4146455;28;20069;-55
2022/10/23 05:40:34;;;;;;;5.68;2.95;;;22.90;72.50;;;;;;4145938;28;20040;-57
2022/10/23 05:42:57;;;;;;;6.75;2.83;;;23.00;72.50;;;;;;4132675;28;20049;-57
2022/10/23 05:45:20;;;;;;;5.22;2.60;;;22.90;72.50;;;;;;4148532;28;20051;-57
2022/10/23 05:47:46;;;;;;;6.28;2.80;;;22.90;72.50;;;;;;4146377;28;20128;-56
2022/10/23 05:50:09;;;;;;;4.40;2.47;;;22.90;73.10;;;;;;4144884;28;20123;-54
2022/10/23 05:52:31;;;;;;;5.75;2.67;;;22.90;72.50;;;;;;4147207;28;20052;-57
2022/10/23 05:54:54;;;;;;;6.03;2.58;;;22.90;72.40;;;;;;4145834;28;20567;-57
2022/10/23 05:57:17;;;;;;;4.50;2.55;;;22.80;72.30;;;;;;4149466;28;20042;-57
2022/10/23 05:59:39;;;;;;;5.30;2.60;;;22.90;72.30;;;;;;4145921;28;20515;-58
2022/10/23 06:02:02;;;;;;;4.80;2.92;;;22.90;72.30;;;;;;4151354;28;20457;-57
2022/10/23 06:04:25;;;;;;;7.20;3.20;;;22.90;72.20;;;;;;4153285;23;20045;-48
2022/10/23 06:06:47;;;;;;;5.20;2.65;;;22.90;72.20;;;;;;4153929;28;20120;-53
2022/10/23 06:09:10;;;;;;;5.93;3.05;;;22.90;72.20;;;;;;4159229;28;20374;-49
2022/10/23 06:11:32;;;;;;;6.70;2.92;;;22.80;72.10;;;;;;4149179;28;20039;-51
2022/10/23 06:13:55;;;;;;;8.10;2.75;;;22.90;72.20;;;;;;4151365;28;20206;-48
2022/10/23 06:16:25;;;;;;;4.68;2.90;;;22.80;72.00;;;;;;4151458;28;20073;-51
2022/10/23 06:18:49;;;;;;;6.78;2.72;;;22.80;72.10;;;;;;4135162;28;20050;-49
2022/10/23 06:21:13;;;;;;;5.75;2.90;;;22.80;72.00;;;;;;4153045;28;20786;-48
2022/10/23 06:23:37;;;;;;;4.65;2.70;;;22.80;72.00;;;;;;4149360;28;20396;-50
2022/10/23 06:26:00;;;;;;;5.00;3.10;;;22.80;72.60;;;;;;4152449;28;20052;-52
2022/10/23 06:28:23;;;;;;;5.70;2.70;;;22.80;72.00;;;;;;4157083;28;20044;-52
2022/10/23 06:30:45;;;;;;;5.25;3.08;;;22.80;72.00;;;;;;4154350;28;20128;-48
2022/10/23 06:33:08;;;;;;;5.28;3.20;;;22.80;72.00;;;;;;4149328;28;20053;-46
2022/10/23 06:35:30;;;;;;;4.53;3.08;;;22.80;72.00;;;;;;4366618;22;20061;-50
2022/10/23 06:37:53;;;;;;;8.60;3.50;;;22.70;71.90;;;;;;4165200;28;20044;-53
2022/10/23 06:40:16;;;;;;;7.78;3.30;;;22.70;71.90;;;;;;4167722;28;20040;-54
2022/10/23 06:42:38;;;;;;;5.90;3.03;;;22.70;72.00;;;;;;4155657;28;20498;-52
2022/10/23 06:45:01;;;;;;;5.85;2.83;;;22.70;72.00;;;;;;4169331;28;20571;-53
2022/10/23 06:47:23;;;;;;;6.30;3.15;;;22.70;72.00;;;;;;4156278;28;20076;-56
2022/10/23 06:49:46;;;;;;;5.70;2.83;;;22.70;72.00;;;;;;4156109;28;20036;-54
2022/10/23 06:52:08;;;;;;;6.78;3.30;;;22.70;72.10;;;;;;4166858;28;20116;-56
2022/10/23 06:54:31;;;;;;;5.32;3.05;;;22.70;72.80;;;;;;4159479;28;20049;-55
2022/10/23 06:56:53;;;;;;;6.65;3.30;;;22.70;72.20;;;;;;4170066;28;20043;-53
2022/10/23 06:59:16;;;;;;;5.53;2.97;;;22.70;72.30;;;;;;4171408;28;20047;-55
2022/10/23 07:01:39;;;;;;;6.07;3.00;;;22.70;72.40;;;;;;4163391;28;20042;-55
2022/10/23 07:04:01;;;;;;;5.53;3.00;;;22.70;72.50;;;;;;4156976;28;20430;-54
2022/10/23 07:06:24;;;;;;;6.25;3.10;;;22.70;72.60;;;;;;4163717;28;20044;-57
2022/10/23 07:08:46;;;;;;;5.88;3.00;;;22.70;72.70;;;;;;4156158;28;20043;-57
2022/10/23 07:11:12;;;;;;;5.53;2.80;;;22.70;72.80;;;;;;4160531;28;20041;-57
2022/10/23 07:13:37;;;;;;;5.85;3.13;;;22.60;72.80;;;;;;4167982;28;20056;-55
2022/10/23 07:16:07;;;;;;;5.65;3.20;;;22.60;73.50;;;;;;4168761;28;20047;-55
2022/10/23 07:18:30;;;;;;;5.82;2.97;;;22.60;72.90;;;;;;4159890;28;20072;-55
2022/10/23 07:20:58;;;;;;;6.03;2.85;;;22.60;73.00;;;;;;4166056;28;20032;-55
2022/10/23 07:23:20;;;;;;;6.00;3.13;;;22.60;73.00;;;;;;4159964;28;20041;-54
2022/10/23 07:25:43;;;;;;;7.65;2.97;;;22.60;73.10;;;;;;4164480;28;20075;-55
2022/10/23 07:28:05;;;;;;;5.72;2.90;;;22.60;73.10;;;;;;4159382;28;20036;-56
2022/10/23 07:30:28;;;;;;;8.32;3.00;;;22.60;73.20;;;;;;4163736;28;20041;-54
2022/10/23 07:32:51;;;;;;;7.45;3.40;;;22.60;73.20;;;;;;4160065;28;20050;-56
2022/10/23 07:35:14;;;;;;;8.70;3.55;;;22.60;73.20;;;;;;4169294;28;20043;-53
2022/10/23 07:37:37;;;;;;;5.80;2.87;;;22.60;73.20;;;;;;4158352;28;20049;-52
2022/10/23 07:39:59;;;;;;;6.05;3.30;;;22.60;73.20;;;;;;4159888;28;21121;-52
2022/10/23 07:42:22;;;;;;;5.65;3.10;;;22.60;73.20;;;;;;4158412;28;20052;-52
2022/10/23 07:44:44;;;;;;;6.45;3.17;;;22.50;73.20;;;;;;4167298;28;20041;-50
2022/10/23 07:47:08;;;;;;;8.60;5.10;;;22.50;73.20;;;;;;4163982;28;20043;-55
2022/10/23 07:49:31;;;;;;;8.88;6.68;;;22.50;73.20;;;;;;4163018;28;20491;-51
2022/10/23 07:51:53;;;;;;;13.73;10.82;;;22.50;73.20;;;;;;4169008;28;20072;-55
2022/10/23 07:54:16;;;;;;;14.18;11.77;;;22.50;73.20;;;;;;4167858;28;20070;-55
2022/10/23 07:56:38;;;;;;;17.92;16.02;;;22.50;73.20;;;;;;4160170;28;20048;-57
2022/10/23 07:59:01;;;;;;;20.50;18.60;;;22.50;73.30;;;;;;4168618;28;20523;-55
2022/10/23 08:01:32;;;;;;;23.23;20.73;;;22.40;73.20;;;;;;4169350;28;20038;-51
2022/10/23 08:03:55;;;;;;;23.15;20.85;;;22.40;73.30;;;;;;4158656;28;20076;-53
2022/10/23 08:06:17;;;;;;;23.13;21.02;;;22.40;73.30;;;;;;4164468;28;20405;-54
2022/10/23 08:08:40;;;;;;;22.58;20.25;;;22.40;73.30;;;;;;4163974;28;20063;-55
2022/10/23 08:11:02;;;;;;;20.90;19.00;;;22.40;73.30;;;;;;4169521;28;20037;-56
2022/10/23 08:13:25;;;;;;;20.98;18.90;;;22.40;73.30;;;;;;4165428;28;20086;-54
2022/10/23 08:15:49;;;;;;;21.52;19.33;;;22.50;73.40;;;;;;4165641;28;20037;-50
2022/10/23 08:18:12;;;;;;;24.77;22.52;;;22.40;73.30;;;;;;4164813;28;20041;-50
2022/10/23 08:20:52;;;;;;;25.25;22.65;;;22.40;73.50;;;;;;4168298;28;20040;-52
2022/10/23 08:23:17;;;;;;;27.45;24.73;;;22.40;73.60;;;;;;4159187;28;20032;-49
2022/10/23 08:25:40;;;;;;;26.40;23.83;;;22.40;73.60;;;;;;4142044;28;20092;-57
2022/10/23 08:28:03;;;;;;;27.63;25.02;;;22.40;73.60;;;;;;4169294;28;20487;-53
2022/10/23 08:30:26;;;;;;;27.15;24.55;;;22.40;73.70;;;;;;4168934;28;20450;-51
2022/10/23 08:32:49;;;;;;;26.83;24.33;;;22.40;73.70;;;;;;4165984;28;20053;-54
2022/10/23 08:35:11;;;;;;;29.42;26.60;;;22.40;73.80;;;;;;4165408;28;20033;-49
2022/10/23 08:37:34;;;;;;;28.25;25.50;;;22.40;73.80;;;;;;4162919;28;20054;-50
2022/10/23 08:39:56;;;;;;;29.17;26.45;;;22.30;73.80;;;;;;4164552;28;20115;-55
2022/10/23 08:42:25;;;;;;;29.10;26.38;;;22.30;73.70;;;;;;4157753;28;20042;-51
2022/10/23 08:45:21;;;;;;;30.00;27.02;;;22.30;73.80;;;;;;4171642;28;20397;-54
2022/10/23 08:47:53;;;;;;;29.83;26.85;;;22.40;73.80;;;;;;4172964;28;20234;-56
2022/10/23 08:50:40;;;;;;;29.70;26.52;;;22.30;73.80;;;;;;4161217;28;20511;-54
2022/10/23 08:53:19;;;;;;;31.30;28.10;;;22.30;73.80;;;;;;4167289;28;20129;-52
2022/10/23 08:55:46;;;;;;;34.72;29.45;;;22.30;73.90;;;;;;4163106;28;20032;-51
2022/10/23 08:58:17;;;;;;;31.33;27.92;;;22.30;73.90;;;;;;4168351;28;20438;-55
2022/10/23 09:00:41;;;;;;;31.63;28.42;;;22.30;73.90;;;;;;4174713;28;20051;-51
2022/10/23 09:03:05;;;;;;;31.35;27.83;;;22.30;73.90;;;;;;4165509;28;20112;-51
2022/10/23 09:05:35;;;;;;;28.60;25.77;;;22.30;73.90;;;;;;4174508;28;20037;-51
2022/10/23 09:08:30;;;;;;;28.55;25.52;;;22.30;74.00;;;;;;4169120;28;20033;-54
2022/10/23 09:10:58;;;;;;;27.40;24.70;;;22.30;74.00;;;;;;4171135;28;20052;-54
2022/10/23 09:13:47;;;;;;;27.45;24.33;;;22.30;74.00;;;;;;4169978;28;20130;-56
2022/10/23 09:16:17;;;;;;;26.40;23.58;;;22.20;74.00;;;;;;4172316;28;20025;-52
2022/10/23 09:18:42;;;;;;;25.92;23.20;;;22.20;74.00;;;;;;4155613;28;20033;-56
2022/10/23 09:21:10;;;;;;;25.75;23.05;;;22.20;74.00;;;;;;4168228;28;20375;-55
2022/10/23 09:23:32;;;;;;;24.08;21.58;;;22.20;74.00;;;;;;4169130;28;20096;-54
2022/10/23 09:25:55;;;;;;;23.75;21.30;;;22.20;74.00;;;;;;4159256;28;20040;-56
2022/10/23 09:28:20;;;;;;;23.20;20.70;;;22.20;74.00;;;;;;4158960;28;20128;-53
2022/10/23 09:30:43;;;;;;;21.30;19.08;;;22.20;74.00;;;;;;4165937;28;20674;-48
2022/10/23 09:33:21;;;;;;;22.87;20.43;;;22.20;74.10;;;;;;4159957;28;20045;-47
2022/10/23 09:35:53;;;;;;;20.83;18.60;;;22.20;74.00;;;;;;4162822;28;20049;-48
2022/10/23 09:38:37;;;;;;;21.83;19.45;;;22.20;74.00;;;;;;4161993;28;20103;-48
2022/10/23 09:41:21;;;;;;;21.45;19.25;;;22.20;74.60;;;;;;4144796;28;20037;-53
2022/10/23 09:43:44;;;;;;;21.63;19.30;;;22.20;73.90;;;;;;4163842;28;20431;-46
2022/10/23 09:46:08;;;;;;;21.98;18.38;;;22.10;73.90;;;;;;4165817;28;20485;-46
2022/10/23 09:48:31;;;;;;;20.75;18.67;;;22.20;74.00;;;;;;4168303;28;20418;-47
2022/10/23 09:50:59;;;;;;;20.42;18.20;;;22.10;73.90;;;;;;4166486;28;20116;-46
2022/10/23 09:53:53;;;;;;;21.25;18.08;;;22.10;73.90;;;;;;4160434;28;20055;-46
2022/10/23 09:56:32;;;;;;;23.90;17.65;;;22.10;73.90;;;;;;4160572;28;20536;-55
2022/10/23 09:59:14;;;;;;;22.27;17.02;;;22.10;74.20;;;;;;4159337;28;20036;-50
2022/10/23 10:01:52;;;;;;;27.63;18.70;;;22.10;75.20;;;;;;4157840;28;20041;-56
2022/10/23 10:04:15;;;;;;;19.88;16.90;;;22.20;75.60;;;;;;4160210;28;20059;-55
2022/10/23 10:06:37;;;;;;;19.45;16.50;;;22.20;75.80;;;;;;4157685;28;20396;-52
2022/10/23 10:09:05;;;;;;;24.40;16.05;;;22.20;75.70;;;;;;4167846;28;20908;-50
2022/10/23 10:11:47;;;;;;;17.77;15.30;;;22.20;76.00;;;;;;4148004;28;20029;-50
2022/10/23 10:14:46;;;;;;;22.02;15.45;;;22.30;76.10;;;;;;4161056;28;20040;-47
2022/10/23 10:17:33;;;;;;;22.27;15.52;;;22.30;76.20;;;;;;4163387;28;20037;-46
2022/10/23 10:20:12;;;;;;;17.85;15.40;;;22.30;76.10;;;;;;4164210;28;20037;-46
2022/10/23 10:23:16;;;;;;;17.20;14.93;;;22.30;76.20;;;;;;4159633;28;20525;-46
2022/10/23 10:26:09;;;;;;;17.67;14.43;;;22.30;76.20;;;;;;4160035;28;20044;-45
2022/10/23 10:28:34;;;;;;;20.05;13.18;;;22.40;76.30;;;;;;4160208;28;20048;-51
2022/10/23 10:31:03;;;;;;;23.65;14.65;;;22.40;76.30;;;;;;4159296;28;20510;-47
2022/10/23 10:33:38;;;;;;;17.15;13.45;;;22.40;76.50;;;;;;4161528;28;20096;-47
2022/10/23 10:36:38;;;;;;;16.85;13.75;;;22.40;76.50;;;;;;4161758;28;20091;-53
2022/10/23 10:39:03;;;;;;;21.38;12.73;;;22.40;76.40;;;;;;4159560;28;20441;-47
2022/10/23 10:41:49;;;;;;;15.05;11.93;;;22.40;76.40;;;;;;4160095;28;20480;-52
2022/10/23 10:44:23;;;;;;;18.52;11.82;;;22.40;76.40;;;;;;4161687;28;20116;-50
2022/10/23 10:46:53;;;;;;;;;;;22.40;76.40;;;;;;4146070;28;20075;-51
2022/10/23 10:49:39;;;;;;;16.58;12.05;;;22.40;76.40;;;;;;4168095;28;19957;-53
2022/10/23 10:52:29;;;;;;;18.05;11.05;;;22.40;76.30;;;;;;4163194;28;20095;-54
2022/10/23 10:54:57;;;;;;;13.73;10.40;;;22.30;76.20;;;;;;4159686;28;20045;-50
2022/10/23 10:58:06;;;;;;;27.27;11.18;;;22.30;76.30;;;;;;4162092;28;20097;-54
2022/10/23 11:00:32;;;;;;;12.07;9.52;;;22.30;76.30;;;;;;4158145;28;20499;-50
2022/10/23 11:03:10;;;;;;;11.88;9.85;;;22.30;76.30;;;;;;4156415;28;20041;-51
2022/10/23 11:05:44;;;;;;;15.23;9.48;;;22.30;76.70;;;;;;4160880;28;20056;-49
2022/10/23 11:08:10;;;;;;;12.98;9.43;;;22.30;76.40;;;;;;4166819;28;20055;-53
2022/10/23 11:10:37;;;;;;;11.07;8.68;;;22.30;76.50;;;;;;4161732;28;20041;-49
2022/10/23 11:13:00;;;;;;;10.80;8.73;;;22.30;76.40;;;;;;4161866;28;20410;-47
2022/10/23 11:15:34;;;;;;;11.70;8.05;;;22.30;76.40;;;;;;4163133;28;20052;-52
2022/10/23 11:18:01;;;;;;;13.60;8.32;;;22.30;76.50;;;;;;4168584;28;20041;-51
2022/10/23 11:20:38;;;;;;;9.98;8.35;;;22.30;76.50;;;;;;4168611;28;20044;-48
2022/10/23 11:23:13;;;;;;;10.43;7.75;;;22.30;76.40;;;;;;4164249;28;20040;-50
2022/10/23 11:25:58;;;;;;;9.57;7.50;;;22.30;76.40;;;;;;4170479;28;20578;-53
2022/10/23 11:29:01;;;;;;;10.05;7.72;;;22.30;76.40;;;;;;4173023;28;20040;-50
2022/10/23 11:31:49;;;;;;;11.60;7.68;;;22.30;76.30;;;;;;4114946;28;20041;-50
2022/10/23 11:34:21;;;;;;;10.05;6.68;;;22.30;76.50;;;;;;4164398;28;20045;-55
2022/10/23 11:36:53;;;;;;;8.10;6.22;;;22.30;76.50;;;;;;4164536;28;20052;-53
2022/10/23 11:39:34;;;;;;;8.63;6.20;;;22.30;76.40;;;;;;4159675;28;20041;-54
2022/10/23 11:42:04;;;;;;;8.18;6.35;;;22.30;76.30;;;;;;4156548;28;20047;-48
2022/10/23 11:44:40;;;;;;;9.50;6.13;;;22.30;76.30;;;;;;4168167;28;20048;-54
2022/10/23 11:47:34;;;;;;;9.02;6.25;;;22.30;76.30;;;;;;4166070;28;20520;-50
2022/10/23 11:50:09;;;;;;;8.65;5.70;;;22.30;76.20;;;;;;4166823;28;20037;-55
2022/10/23 11:52:32;;;;;;;7.30;5.45;;;22.30;76.20;;;;;;4174253;28;20488;-54
2022/10/23 11:55:20;;;;;;;6.27;5.27;;;22.30;76.20;;;;;;4175178;28;20051;-50
2022/10/23 11:57:44;;;;;;;6.20;5.10;;;22.30;76.10;;;;;;4164117;28;20033;-51
2022/10/23 12:00:21;;;;;;;6.80;4.95;;;22.30;76.10;;;;;;4165061;28;20511;-54
2022/10/23 12:02:49;;;;;;;5.93;4.72;;;22.30;76.10;;;;;;4165009;28;20033;-50
2022/10/23 12:05:36;;;;;;;6.93;5.03;;;22.30;76.10;;;;;;4157644;28;20045;-51
2022/10/23 12:08:01;;;;;;;6.88;4.63;;;22.30;76.00;;;;;;4171942;28;20044;-47
2022/10/23 12:10:33;;;;;;;8.35;5.28;;;22.20;76.00;;;;;;4167874;28;20041;-49
2022/10/23 12:13:02;;;;;;;6.50;4.13;;;22.30;76.20;;;;;;4166665;28;20111;-53
2022/10/23 12:15:26;;;;;;;6.03;4.55;;;22.30;76.20;;;;;;4167935;28;20033;-46
2022/10/23 12:17:53;;;;;;;10.35;4.35;;;22.20;76.10;;;;;;4167660;28;20104;-54
2022/10/23 12:20:34;;;;;;;8.52;4.47;;;22.20;76.20;;;;;;4161791;28;20544;-56
2022/10/23 12:23:19;;;;;;;5.85;4.15;;;22.20;76.60;;;;;;4167612;28;20040;-52
2022/10/23 12:26:06;;;;;;;7.38;4.18;;;22.30;76.70;;;;;;4170788;28;20091;-48
2022/10/23 12:28:39;;;;;;;5.93;4.07;;;22.30;76.60;;;;;;4174374;28;20069;-47
2022/10/23 12:31:22;;;;;;;5.70;3.85;;;22.30;76.50;;;;;;4173256;28;20450;-52
2022/10/23 12:34:03;;;;;;;5.72;3.60;;;22.30;76.40;;;;;;4171646;28;20057;-49
2022/10/23 12:36:44;;;;;;;4.85;3.60;;;22.30;76.30;;;;;;4143480;28;20141;-55
2022/10/23 12:39:44;;;;;;;5.40;3.20;;;22.30;76.30;;;;;;4154343;28;20453;-48
2022/10/23 12:42:18;;;;;;;5.50;3.40;;;22.30;76.20;;;;;;4074860;28;20074;-51
2022/10/23 12:44:43;;;;;;;4.30;2.90;;;22.30;76.20;;;;;;4157958;28;20037;-46
2022/10/23 12:47:06;;;;;;;5.05;3.42;;;22.30;76.10;;;;;;4157725;28;20571;-55
2022/10/23 12:49:34;;;;;;;4.63;3.67;;;22.30;76.10;;;;;;4150973;28;20487;-50
2022/10/23 12:52:28;;;;;;;5.43;3.47;;;22.30;76.20;;;;;;4154072;28;20140;-54